createdAt,value
2019-05-30T00:03:52.035Z,94798.62
2019-05-30T00:08:54.269Z,94797.07
2019-05-30T00:13:56.680Z,94795.68
2019-05-30T00:18:58.807Z,94800.57
2019-05-30T00:24:01.998Z,94802.95
2019-05-30T00:29:04.525Z,94801.98
2019-05-30T00:34:06.515Z,94800.73
2019-05-30T00:39:08.641Z,94803.20
2019-05-30T00:44:10.660Z,94806.19
2019-05-30T00:49:12.493Z,94805.16
2019-05-30T00:54:14.321Z,94812.42
2019-05-30T00:59:16.245Z,94810.70
2019-05-30T01:04:18.168Z,94806.69
2019-05-30T01:09:20.123Z,94811.28
2019-05-30T01:14:22.308Z,94806.68
2019-05-30T01:19:24.159Z,94808.11
2019-05-30T01:24:26.026Z,94814.05
2019-05-30T01:29:27.835Z,94822.93
2019-05-30T01:34:29.718Z,94827.52
2019-05-30T01:39:31.491Z,94836.50
2019-05-30T01:44:33.336Z,94831.06
2019-05-30T01:49:35.139Z,94819.29
2019-05-30T01:54:37.001Z,94828.61
2019-05-30T01:59:38.822Z,94833.71
2019-05-30T02:04:40.671Z,94838.19
2019-05-30T02:09:42.526Z,94845.48
2019-05-30T02:14:44.394Z,94836.13
2019-05-30T02:19:46.219Z,94840.89
2019-05-30T02:24:48.051Z,94841.92
2019-05-30T02:29:49.932Z,94856.83
2019-05-30T02:34:51.776Z,94861.28
2019-05-30T02:39:54.464Z,94862.64
2019-05-30T02:44:56.254Z,94864.50
2019-05-30T02:49:58.086Z,94862.42
2019-05-30T02:55:01.583Z,94861.65
2019-05-30T03:00:08.212Z,94865.58
2019-05-30T03:05:12.614Z,94862.29
2019-05-30T03:10:15.487Z,94855.98
2019-05-30T03:15:18.270Z,94860.25
2019-05-30T03:20:23.094Z,94864.10
2019-05-30T03:25:23.993Z,94864.73
2019-05-30T03:30:29.225Z,94876.27
2019-05-30T03:35:40.340Z,94879.00
2019-05-30T03:40:34.644Z,94880.56
2019-05-30T03:45:38.334Z,94884.39
2019-05-30T03:50:43.766Z,94890.38
2019-05-30T03:55:49.210Z,94897.47
2019-05-30T04:00:57.535Z,94893.13
2019-05-30T04:06:02.989Z,94885.00
2019-05-30T04:11:10.431Z,94894.52
2019-05-30T04:16:13.498Z,94891.83
2019-05-30T04:21:18.708Z,94901.14
2019-05-30T04:26:19.774Z,94899.86
2019-05-30T04:31:21.631Z,94895.00
2019-05-30T04:36:23.505Z,94900.27
2019-05-30T04:41:25.293Z,94897.95
2019-05-30T04:46:27.125Z,94907.63
2019-05-30T04:51:28.902Z,94906.24
2019-05-30T04:56:30.782Z,94912.31
2019-05-30T05:01:32.592Z,94917.83
2019-05-30T05:06:34.416Z,94927.19
2019-05-30T05:11:36.226Z,94932.09
2019-05-30T05:16:38.100Z,94941.30
2019-05-30T05:21:39.892Z,94943.45
2019-05-30T05:26:41.782Z,94939.42
2019-05-30T05:31:43.565Z,94943.06
2019-05-30T05:36:45.394Z,94940.64
2019-05-30T05:41:48.209Z,94952.88
2019-05-30T05:46:51.056Z,94957.48
2019-05-30T05:51:52.886Z,94956.16
2019-05-30T05:56:54.749Z,94959.05
2019-05-30T06:01:56.550Z,94959.81
2019-05-30T06:06:58.421Z,94959.81
2019-05-30T06:12:00.250Z,94962.08
2019-05-30T06:17:02.086Z,94969.77
2019-05-30T06:35:59.348Z,94976.78
2019-05-30T06:41:01.227Z,94971.91
2019-05-30T06:46:03.288Z,94986.85
2019-05-30T06:51:05.104Z,94985.44
2019-05-30T06:56:06.969Z,94988.69
2019-05-30T07:01:09.801Z,94980.23
2019-05-30T07:06:12.174Z,94973.72
2019-05-30T07:11:15.636Z,94971.66
2019-05-30T07:16:17.449Z,94970.28
2019-05-30T07:21:19.885Z,94965.91
2019-05-30T07:26:21.706Z,94962.58
2019-05-30T07:31:24.087Z,94964.41
2019-05-30T07:36:26.194Z,94971.08
2019-05-30T07:41:29.174Z,94967.67
2019-05-30T07:46:31.080Z,94970.13
2019-05-30T07:51:32.956Z,94970.48
2019-05-30T07:56:35.159Z,94967.28
2019-05-30T08:01:37.170Z,94960.31
2019-05-30T08:06:39.036Z,94969.42
2019-05-30T08:11:40.961Z,94964.14
2019-05-30T08:16:42.835Z,94957.19
2019-05-30T08:21:44.825Z,94970.62
2019-05-30T08:26:47.002Z,94969.20
2019-05-30T08:31:48.869Z,94965.04
2019-05-30T08:36:50.710Z,94965.88
2019-05-30T08:41:52.514Z,94969.77
2019-05-30T08:46:54.528Z,94970.80
2019-05-30T08:51:56.412Z,94975.08
2019-05-30T08:56:58.317Z,94970.50
2019-05-30T09:02:00.163Z,94964.39
2019-05-30T09:07:01.986Z,94969.34
2019-05-30T09:12:03.879Z,94969.72
2019-05-30T09:17:05.827Z,94965.47
2019-05-30T09:22:07.721Z,94957.89
2019-05-30T09:27:09.599Z,94961.12
2019-05-30T09:32:11.492Z,94952.78
2019-05-30T09:37:13.361Z,94950.19
2019-05-30T09:42:15.171Z,94941.12
2019-05-30T09:47:17.034Z,94941.80
2019-05-30T09:52:18.829Z,94944.62
2019-05-30T09:57:20.710Z,94950.09
2019-05-30T10:02:22.520Z,94949.59
2019-05-30T10:07:24.448Z,94961.52
2019-05-30T10:12:26.293Z,94945.22
2019-05-30T10:17:28.175Z,94938.69
2019-05-30T10:22:30.098Z,94946.02
2019-05-30T10:27:31.966Z,94942.96
2019-05-30T10:32:33.762Z,94938.95
2019-05-30T10:37:35.587Z,94933.03
2019-05-30T10:42:37.439Z,94932.34
2019-05-30T10:47:39.299Z,94935.33
2019-05-30T10:52:41.337Z,94928.89
2019-05-30T10:57:43.220Z,94937.36
2019-05-30T11:02:47.098Z,94935.24
2019-05-30T11:08:06.831Z,94937.95
2019-05-30T11:13:12.207Z,94943.59
2019-05-30T11:18:14.046Z,94942.77
2019-05-30T11:23:16.070Z,94943.02
2019-05-30T11:28:17.817Z,94929.94
2019-05-30T11:33:19.730Z,94935.16
2019-05-30T11:38:21.549Z,94928.94
2019-05-30T11:43:23.452Z,94924.83
2019-05-30T11:48:25.410Z,94919.75
2019-05-30T11:53:27.339Z,94917.29
2019-05-30T11:58:29.398Z,94925.70
2019-05-30T12:03:31.255Z,94918.81
2019-05-30T12:08:34.463Z,94913.72
2019-05-30T12:13:36.255Z,94903.28
2019-05-30T12:18:38.194Z,94903.09
2019-05-30T12:23:40.151Z,94896.95
2019-05-30T12:28:42.050Z,94894.22
2019-05-30T12:33:43.841Z,94889.58
2019-05-30T12:38:45.707Z,94895.32
2019-05-30T12:43:47.560Z,94897.45
2019-05-30T12:48:49.608Z,94902.81
2019-05-30T12:53:51.529Z,94901.02
2019-05-30T12:58:54.549Z,94897.86
2019-05-30T13:03:56.952Z,94906.34
2019-05-30T13:08:59.111Z,94900.56
2019-05-30T13:14:02.635Z,94888.77
2019-05-30T13:19:06.274Z,94895.34
2019-05-30T13:24:08.635Z,94901.13
2019-05-30T13:29:10.674Z,94906.25
2019-05-30T13:34:12.639Z,94892.41
2019-05-30T13:39:14.485Z,94891.16
2019-05-30T13:44:16.515Z,94895.22
2019-05-30T13:49:19.496Z,94890.41
2019-05-30T13:54:21.507Z,94897.22
2019-05-30T13:59:23.411Z,94883.70
2019-05-30T14:04:25.262Z,94906.79
2019-05-30T14:09:27.223Z,94899.80
2019-05-30T14:14:29.238Z,94903.38
2019-05-30T14:19:31.079Z,94891.89
2019-05-30T14:24:32.909Z,94887.25
2019-05-30T14:29:34.795Z,94888.48
2019-05-30T14:34:36.834Z,94893.03
2019-05-30T14:39:38.607Z,94882.89
2019-05-30T14:44:40.435Z,94888.29
2019-05-30T14:49:42.278Z,94888.25
2019-05-30T14:54:44.132Z,94888.77
2019-05-30T14:59:46.062Z,94896.59
2019-05-30T15:04:48.096Z,94891.97
2019-05-30T15:09:50.057Z,94884.22
2019-05-30T15:14:51.864Z,94873.04
2019-05-30T15:19:53.814Z,94881.55
2019-05-30T15:24:55.674Z,94877.90
2019-05-30T15:29:57.592Z,94881.00
2019-05-30T15:34:59.460Z,94881.52
2019-05-30T15:40:01.541Z,94879.34
2019-05-30T15:45:10.171Z,94880.69
2019-05-30T15:50:15.232Z,94876.38
2019-05-30T15:55:17.765Z,94877.96
2019-05-30T16:00:20.027Z,94882.17
2019-05-30T16:05:22.018Z,94874.48
2019-05-30T16:10:23.852Z,94880.91
2019-05-30T16:15:26.162Z,94893.11
2019-05-30T16:20:32.014Z,94893.20
2019-05-30T16:25:34.019Z,94891.24
2019-05-30T16:30:35.969Z,94897.61
2019-05-30T16:35:37.833Z,94901.23
2019-05-30T16:40:39.675Z,94907.88
2019-05-30T16:45:41.543Z,94917.68
2019-05-30T16:50:43.412Z,94921.73
2019-05-30T16:55:45.319Z,94915.08
2019-05-30T17:00:47.252Z,94923.56
2019-05-30T17:05:49.397Z,94923.52
2019-05-30T17:10:51.196Z,94932.35
2019-05-30T17:15:53.059Z,94935.99
2019-05-30T17:20:54.944Z,94938.91
2019-05-30T17:25:56.869Z,94950.95
2019-05-30T17:30:58.724Z,94954.75
2019-05-30T17:36:00.609Z,94948.90
2019-05-30T17:41:02.718Z,94940.16
2019-05-30T17:46:07.643Z,94951.70
2019-05-30T17:51:08.762Z,94945.38
2019-05-30T17:56:10.815Z,94952.70
2019-05-30T18:01:13.206Z,94963.92
2019-05-30T18:06:15.167Z,94966.97
2019-05-30T18:11:17.237Z,94968.85
2019-05-30T18:16:19.195Z,94972.43
2019-05-30T18:21:21.347Z,94978.82
2019-05-30T18:26:23.554Z,94982.03
2019-05-30T18:31:25.873Z,94990.09
2019-05-30T18:36:28.393Z,94999.60
2019-05-30T18:41:30.878Z,95007.03
2019-05-30T18:46:33.311Z,95007.33
2019-05-30T18:51:36.675Z,95020.27
2019-05-30T18:56:39.091Z,95022.64
2019-05-30T19:01:41.116Z,95030.98
2019-05-30T19:06:43.054Z,95035.90
2019-05-30T19:11:44.996Z,95039.91
2019-05-30T19:16:46.898Z,95045.25
2019-05-30T19:21:48.877Z,95049.17
2019-05-30T19:26:50.851Z,95048.34
2019-05-30T19:31:54.039Z,95056.02
2019-05-30T19:36:55.946Z,95063.61
2019-05-30T19:41:57.913Z,95063.45
2019-05-30T19:46:59.728Z,95074.94
2019-05-30T19:52:01.835Z,95066.45
2019-05-30T19:57:03.694Z,95069.53
2019-05-30T20:02:05.799Z,95069.17
2019-05-30T20:07:07.820Z,95070.27
2019-05-30T20:12:10.360Z,95081.32
2019-05-30T20:17:12.425Z,95076.63
2019-05-30T20:22:14.488Z,95073.14
2019-05-30T20:27:18.983Z,95073.73
2019-05-30T20:32:21.437Z,95075.04
2019-05-30T20:37:24.457Z,95085.26
2019-05-30T20:42:26.441Z,95085.26
2019-05-30T20:47:28.302Z,95090.26
2019-05-30T20:52:30.212Z,95085.83
2019-05-30T20:57:32.022Z,95093.95
2019-05-30T21:02:34.636Z,95085.75
2019-05-30T21:07:38.181Z,95096.57
2019-05-30T21:12:45.569Z,95094.42
2019-05-30T21:17:46.098Z,95094.95
2019-05-30T21:22:48.426Z,95106.75
2019-05-30T21:27:50.231Z,95113.45
2019-05-30T21:32:52.313Z,95119.90
2019-05-30T21:37:54.417Z,95112.25
2019-05-30T21:43:06.014Z,95115.48
2019-05-30T21:48:00.187Z,95120.71
2019-05-30T21:53:02.092Z,95128.11
2019-05-30T21:58:03.872Z,95130.16
2019-05-30T22:03:05.728Z,95129.53
2019-05-30T22:08:07.504Z,95113.41
2019-05-30T22:13:09.866Z,95119.16
2019-05-30T22:18:11.916Z,95112.69
2019-05-30T22:23:13.867Z,95104.97
2019-05-30T22:28:15.776Z,95112.38
2019-05-30T22:33:18.003Z,95109.71
2019-05-30T22:38:19.806Z,95101.58
2019-05-30T22:43:25.361Z,95097.16
2019-05-30T22:48:25.433Z,95094.99
2019-05-30T22:53:27.302Z,95095.31
2019-05-30T22:58:29.104Z,95086.61
2019-05-30T23:03:30.943Z,95076.70
2019-05-30T23:08:32.852Z,95081.59
2019-05-30T23:13:40.610Z,95080.78
2019-05-30T23:18:38.392Z,95084.70
2019-05-30T23:23:40.239Z,95087.75
2019-05-30T23:28:42.084Z,95081.17
2019-05-30T23:33:43.982Z,95078.63
2019-05-30T23:38:46.828Z,95078.72
2019-05-30T23:43:57.925Z,95082.84
2019-05-30T23:48:53.543Z,95090.64
2019-05-30T23:53:56.221Z,95087.45
2019-05-30T23:58:58.889Z,95092.05
